sensor_id;sensor_type;location;lat;lon;timestamp;P1;durP1;ratioP1;P2;durP2;ratioP2
79464;SDS011;68932;47.410;8.232;2024-03-29T00:01:09;1.60;;;1.40;;
79464;SDS011;68932;47.410;8.232;2024-03-29T00:03:37;1.80;;;1.50;;
79464;SDS011;68932;47.410;8.232;2024-03-29T00:06:06;1.60;;;1.10;;
79464;SDS011;68932;47.410;8.232;2024-03-29T00:08:34;1.90;;;1.30;;
79464;SDS011;68932;47.410;8.232;2024-03-29T00:11:02;2.60;;;1.70;;
79464;SDS011;68932;47.410;8.232;2024-03-29T00:13:31;1.80;;;1.40;;
79464;SDS011;68932;47.410;8.232;2024-03-29T00:15:59;2.30;;;1.00;;
79464;SDS011;68932;47.410;8.232;2024-03-29T00:18:27;1.80;;;1.30;;
79464;SDS011;68932;47.410;8.232;2024-03-29T00:20:55;1.60;;;1.40;;
79464;SDS011;68932;47.410;8.232;2024-03-29T00:23:24;1.60;;;1.50;;
79464;SDS011;68932;47.410;8.232;2024-03-29T00:25:52;1.40;;;1.00;;
79464;SDS011;68932;47.410;8.232;2024-03-29T00:28:20;1.50;;;1.30;;
79464;SDS011;68932;47.410;8.232;2024-03-29T00:30:48;1.90;;;1.10;;
79464;SDS011;68932;47.410;8.232;2024-03-29T00:33:16;2.50;;;1.10;;
79464;SDS011;68932;47.410;8.232;2024-03-29T00:35:44;1.50;;;1.20;;
79464;SDS011;68932;47.410;8.232;2024-03-29T00:38:12;2.30;;;0.90;;
79464;SDS011;68932;47.410;8.232;2024-03-29T00:40:40;1.30;;;1.10;;
79464;SDS011;68932;47.410;8.232;2024-03-29T00:43:08;1.50;;;1.40;;
79464;SDS011;68932;47.410;8.232;2024-03-29T00:45:36;1.80;;;1.10;;
79464;SDS011;68932;47.410;8.232;2024-03-29T00:48:05;2.30;;;1.30;;
79464;SDS011;68932;47.410;8.232;2024-03-29T00:50:34;2.30;;;1.40;;
79464;SDS011;68932;47.410;8.232;2024-03-29T00:53:02;2.10;;;1.30;;
79464;SDS011;68932;47.410;8.232;2024-03-29T00:55:30;1.80;;;1.10;;
79464;SDS011;68932;47.410;8.232;2024-03-29T00:57:58;1.60;;;1.20;;
79464;SDS011;68932;47.410;8.232;2024-03-29T01:00:26;1.60;;;1.00;;
79464;SDS011;68932;47.410;8.232;2024-03-29T01:02:54;3.60;;;1.40;;
79464;SDS011;68932;47.410;8.232;2024-03-29T01:05:22;2.30;;;1.70;;
79464;SDS011;68932;47.410;8.232;2024-03-29T01:07:50;2.10;;;1.30;;
79464;SDS011;68932;47.410;8.232;2024-03-29T01:10:18;4.70;;;3.00;;
79464;SDS011;68932;47.410;8.232;2024-03-29T01:12:46;2.30;;;1.40;;
79464;SDS011;68932;47.410;8.232;2024-03-29T01:15:15;2.00;;;1.50;;
79464;SDS011;68932;47.410;8.232;2024-03-29T01:17:43;2.80;;;1.60;;
79464;SDS011;68932;47.410;8.232;2024-03-29T01:20:11;3.00;;;1.10;;
79464;SDS011;68932;47.410;8.232;2024-03-29T01:22:39;1.70;;;1.10;;
79464;SDS011;68932;47.410;8.232;2024-03-29T01:25:08;2.10;;;1.40;;
79464;SDS011;68932;47.410;8.232;2024-03-29T01:27:36;1.70;;;1.50;;
79464;SDS011;68932;47.410;8.232;2024-03-29T01:30:05;1.60;;;0.80;;
79464;SDS011;68932;47.410;8.232;2024-03-29T01:32:35;1.80;;;1.10;;
79464;SDS011;68932;47.410;8.232;2024-03-29T01:35:04;2.20;;;1.40;;
79464;SDS011;68932;47.410;8.232;2024-03-29T01:37:33;2.60;;;1.40;;
79464;SDS011;68932;47.410;8.232;2024-03-29T01:40:01;1.50;;;1.40;;
79464;SDS011;68932;47.410;8.232;2024-03-29T01:42:30;1.70;;;1.30;;
79464;SDS011;68932;47.410;8.232;2024-03-29T01:44:58;1.60;;;1.30;;
79464;SDS011;68932;47.410;8.232;2024-03-29T01:47:26;3.00;;;1.50;;
79464;SDS011;68932;47.410;8.232;2024-03-29T01:49:54;2.20;;;1.70;;
79464;SDS011;68932;47.410;8.232;2024-03-29T01:52:23;3.40;;;1.80;;
79464;SDS011;68932;47.410;8.232;2024-03-29T01:54:51;2.60;;;1.70;;
79464;SDS011;68932;47.410;8.232;2024-03-29T01:57:19;2.90;;;1.90;;
79464;SDS011;68932;47.410;8.232;2024-03-29T01:59:48;3.40;;;2.30;;
79464;SDS011;68932;47.410;8.232;2024-03-29T02:02:17;3.20;;;2.90;;
79464;SDS011;68932;47.410;8.232;2024-03-29T02:04:46;2.10;;;1.80;;
79464;SDS011;68932;47.410;8.232;2024-03-29T02:07:14;4.30;;;2.10;;
79464;SDS011;68932;47.410;8.232;2024-03-29T02:09:42;3.40;;;2.60;;
79464;SDS011;68932;47.410;8.232;2024-03-29T02:12:11;2.60;;;1.90;;
79464;SDS011;68932;47.410;8.232;2024-03-29T02:14:39;4.70;;;2.80;;
79464;SDS011;68932;47.410;8.232;2024-03-29T02:17:07;5.60;;;2.30;;
79464;SDS011;68932;47.410;8.232;2024-03-29T02:19:35;4.00;;;2.30;;
79464;SDS011;68932;47.410;8.232;2024-03-29T02:22:03;4.10;;;2.30;;
79464;SDS011;68932;47.410;8.232;2024-03-29T02:24:32;3.40;;;2.40;;
79464;SDS011;68932;47.410;8.232;2024-03-29T02:27:00;3.50;;;2.20;;
79464;SDS011;68932;47.410;8.232;2024-03-29T02:29:29;3.50;;;2.20;;
79464;SDS011;68932;47.410;8.232;2024-03-29T02:31:57;3.20;;;2.10;;
79464;SDS011;68932;47.410;8.232;2024-03-29T02:34:26;3.80;;;1.90;;
79464;SDS011;68932;47.410;8.232;2024-03-29T02:36:54;3.10;;;2.20;;
79464;SDS011;68932;47.410;8.232;2024-03-29T02:39:22;2.80;;;2.40;;
79464;SDS011;68932;47.410;8.232;2024-03-29T02:41:50;3.30;;;2.20;;
79464;SDS011;68932;47.410;8.232;2024-03-29T02:44:18;3.00;;;2.10;;
79464;SDS011;68932;47.410;8.232;2024-03-29T02:46:46;2.70;;;1.90;;
79464;SDS011;68932;47.410;8.232;2024-03-29T02:49:14;2.90;;;1.60;;
79464;SDS011;68932;47.410;8.232;2024-03-29T02:51:42;3.70;;;2.00;;
79464;SDS011;68932;47.410;8.232;2024-03-29T02:54:10;3.20;;;2.00;;
79464;SDS011;68932;47.410;8.232;2024-03-29T02:56:38;2.40;;;2.10;;
79464;SDS011;68932;47.410;8.232;2024-03-29T02:59:06;3.50;;;2.20;;
79464;SDS011;68932;47.410;8.232;2024-03-29T03:01:34;2.30;;;1.80;;
79464;SDS011;68932;47.410;8.232;2024-03-29T03:04:03;2.80;;;1.60;;
79464;SDS011;68932;47.410;8.232;2024-03-29T03:06:31;2.40;;;2.20;;
79464;SDS011;68932;47.410;8.232;2024-03-29T03:08:59;2.10;;;1.90;;
79464;SDS011;68932;47.410;8.232;2024-03-29T03:11:27;2.10;;;1.90;;
79464;SDS011;68932;47.410;8.232;2024-03-29T03:13:55;2.00;;;1.60;;
79464;SDS011;68932;47.410;8.232;2024-03-29T03:16:23;1.90;;;1.40;;
79464;SDS011;68932;47.410;8.232;2024-03-29T03:18:51;3.30;;;2.00;;
79464;SDS011;68932;47.410;8.232;2024-03-29T03:21:20;2.20;;;1.40;;
79464;SDS011;68932;47.410;8.232;2024-03-29T03:23:48;2.70;;;1.90;;
79464;SDS011;68932;47.410;8.232;2024-03-29T03:26:16;3.20;;;1.90;;
79464;SDS011;68932;47.410;8.232;2024-03-29T03:28:44;2.00;;;1.50;;
79464;SDS011;68932;47.410;8.232;2024-03-29T03:31:12;2.70;;;1.40;;
79464;SDS011;68932;47.410;8.232;2024-03-29T03:33:40;1.60;;;1.30;;
79464;SDS011;68932;47.410;8.232;2024-03-29T03:36:08;3.20;;;1.80;;
79464;SDS011;68932;47.410;8.232;2024-03-29T03:38:36;3.00;;;2.20;;
79464;SDS011;68932;47.410;8.232;2024-03-29T03:41:04;2.30;;;1.70;;
79464;SDS011;68932;47.410;8.232;2024-03-29T03:43:33;4.00;;;1.90;;
79464;SDS011;68932;47.410;8.232;2024-03-29T03:46:01;3.70;;;2.40;;
79464;SDS011;68932;47.410;8.232;2024-03-29T03:48:30;2.80;;;2.40;;
79464;SDS011;68932;47.410;8.232;2024-03-29T03:50:58;3.10;;;2.20;;
79464;SDS011;68932;47.410;8.232;2024-03-29T03:53:26;3.00;;;1.90;;
79464;SDS011;68932;47.410;8.232;2024-03-29T03:55:54;3.20;;;1.80;;
79464;SDS011;68932;47.410;8.232;2024-03-29T03:58:22;2.60;;;1.90;;
79464;SDS011;68932;47.410;8.232;2024-03-29T04:00:50;4.50;;;2.00;;
79464;SDS011;68932;47.410;8.232;2024-03-29T04:03:18;2.10;;;1.70;;
79464;SDS011;68932;47.410;8.232;2024-03-29T04:05:46;5.40;;;2.60;;
79464;SDS011;68932;47.410;8.232;2024-03-29T04:08:14;2.60;;;2.30;;
79464;SDS011;68932;47.410;8.232;2024-03-29T04:10:42;3.30;;;2.30;;
79464;SDS011;68932;47.410;8.232;2024-03-29T04:13:10;3.60;;;1.90;;
79464;SDS011;68932;47.410;8.232;2024-03-29T04:15:38;3.50;;;2.10;;
79464;SDS011;68932;47.410;8.232;2024-03-29T04:18:07;3.30;;;2.40;;
79464;SDS011;68932;47.410;8.232;2024-03-29T04:20:35;2.70;;;1.40;;
79464;SDS011;68932;47.410;8.232;2024-03-29T04:23:05;3.00;;;2.10;;
79464;SDS011;68932;47.410;8.232;2024-03-29T04:25:33;3.20;;;1.90;;
79464;SDS011;68932;47.410;8.232;2024-03-29T04:28:01;2.40;;;2.20;;
79464;SDS011;68932;47.410;8.232;2024-03-29T04:30:29;3.30;;;2.00;;
79464;SDS011;68932;47.410;8.232;2024-03-29T04:32:58;3.10;;;2.10;;
79464;SDS011;68932;47.410;8.232;2024-03-29T04:35:26;2.20;;;1.80;;
79464;SDS011;68932;47.410;8.232;2024-03-29T04:37:54;2.70;;;2.30;;
79464;SDS011;68932;47.410;8.232;2024-03-29T04:40:22;4.40;;;2.90;;
79464;SDS011;68932;47.410;8.232;2024-03-29T04:42:50;3.30;;;2.20;;
79464;SDS011;68932;47.410;8.232;2024-03-29T04:45:18;2.80;;;2.10;;
79464;SDS011;68932;47.410;8.232;2024-03-29T04:47:46;2.90;;;1.70;;
79464;SDS011;68932;47.410;8.232;2024-03-29T04:50:14;3.10;;;2.20;;
79464;SDS011;68932;47.410;8.232;2024-03-29T04:52:42;3.50;;;2.00;;
79464;SDS011;68932;47.410;8.232;2024-03-29T04:55:10;4.00;;;1.70;;
79464;SDS011;68932;47.410;8.232;2024-03-29T04:57:38;2.40;;;1.90;;
79464;SDS011;68932;47.410;8.232;2024-03-29T05:00:08;3.00;;;2.80;;
79464;SDS011;68932;47.410;8.232;2024-03-29T05:02:37;2.00;;;1.60;;
79464;SDS011;68932;47.410;8.232;2024-03-29T05:05:06;2.90;;;2.10;;
79464;SDS011;68932;47.410;8.232;2024-03-29T05:07:34;3.30;;;1.50;;
79464;SDS011;68932;47.410;8.232;2024-03-29T05:10:02;2.30;;;1.80;;
79464;SDS011;68932;47.410;8.232;2024-03-29T05:12:31;3.00;;;2.00;;
79464;SDS011;68932;47.410;8.232;2024-03-29T05:14:59;3.60;;;1.90;;
79464;SDS011;68932;47.410;8.232;2024-03-29T05:17:27;5.30;;;2.10;;
79464;SDS011;68932;47.410;8.232;2024-03-29T05:19:55;2.50;;;2.20;;
79464;SDS011;68932;47.410;8.232;2024-03-29T05:22:23;3.30;;;2.40;;
79464;SDS011;68932;47.410;8.232;2024-03-29T05:24:53;2.80;;;1.70;;
79464;SDS011;68932;47.410;8.232;2024-03-29T05:27:21;3.60;;;2.00;;
79464;SDS011;68932;47.410;8.232;2024-03-29T05:29:49;3.40;;;2.40;;
79464;SDS011;68932;47.410;8.232;2024-03-29T05:32:17;3.30;;;2.20;;
79464;SDS011;68932;47.410;8.232;2024-03-29T05:34:45;2.70;;;1.90;;
79464;SDS011;68932;47.410;8.232;2024-03-29T05:37:13;3.20;;;1.90;;
79464;SDS011;68932;47.410;8.232;2024-03-29T05:39:41;2.80;;;2.10;;
79464;SDS011;68932;47.410;8.232;2024-03-29T05:42:10;2.20;;;1.70;;
79464;SDS011;68932;47.410;8.232;2024-03-29T05:44:38;4.00;;;2.20;;
79464;SDS011;68932;47.410;8.232;2024-03-29T05:47:06;3.60;;;1.80;;
79464;SDS011;68932;47.410;8.232;2024-03-29T05:49:34;2.40;;;1.90;;
79464;SDS011;68932;47.410;8.232;2024-03-29T05:52:02;2.70;;;2.50;;
79464;SDS011;68932;47.410;8.232;2024-03-29T05:54:31;2.50;;;1.90;;
79464;SDS011;68932;47.410;8.232;2024-03-29T05:56:59;2.90;;;1.90;;
79464;SDS011;68932;47.410;8.232;2024-03-29T05:59:27;3.20;;;2.90;;
79464;SDS011;68932;47.410;8.232;2024-03-29T06:01:55;3.00;;;2.20;;
79464;SDS011;68932;47.410;8.232;2024-03-29T06:04:23;3.80;;;2.10;;
79464;SDS011;68932;47.410;8.232;2024-03-29T06:06:51;3.40;;;2.10;;
79464;SDS011;68932;47.410;8.232;2024-03-29T06:09:19;2.60;;;2.00;;
79464;SDS011;68932;47.410;8.232;2024-03-29T06:11:47;3.70;;;2.20;;
79464;SDS011;68932;47.410;8.232;2024-03-29T06:14:15;3.20;;;1.90;;
79464;SDS011;68932;47.410;8.232;2024-03-29T06:16:43;2.70;;;2.40;;
79464;SDS011;68932;47.410;8.232;2024-03-29T06:19:11;4.30;;;3.90;;
79464;SDS011;68932;47.410;8.232;2024-03-29T06:21:39;9.10;;;6.90;;
79464;SDS011;68932;47.410;8.232;2024-03-29T06:24:08;3.30;;;2.90;;
79464;SDS011;68932;47.410;8.232;2024-03-29T06:26:36;4.00;;;3.20;;
79464;SDS011;68932;47.410;8.232;2024-03-29T06:29:05;4.60;;;4.10;;
79464;SDS011;68932;47.410;8.232;2024-03-29T06:31:33;4.00;;;2.90;;
79464;SDS011;68932;47.410;8.232;2024-03-29T06:34:01;3.70;;;2.60;;
79464;SDS011;68932;47.410;8.232;2024-03-29T06:36:29;6.00;;;2.80;;
79464;SDS011;68932;47.410;8.232;2024-03-29T06:38:57;4.00;;;2.30;;
79464;SDS011;68932;47.410;8.232;2024-03-29T06:41:25;3.00;;;2.20;;
79464;SDS011;68932;47.410;8.232;2024-03-29T06:43:53;2.40;;;2.10;;
79464;SDS011;68932;47.410;8.232;2024-03-29T06:46:21;3.40;;;1.80;;
79464;SDS011;68932;47.410;8.232;2024-03-29T06:48:49;2.90;;;2.60;;
79464;SDS011;68932;47.410;8.232;2024-03-29T06:51:17;2.90;;;2.40;;
79464;SDS011;68932;47.410;8.232;2024-03-29T06:53:45;2.90;;;2.10;;
79464;SDS011;68932;47.410;8.232;2024-03-29T06:56:13;3.10;;;2.60;;
79464;SDS011;68932;47.410;8.232;2024-03-29T06:58:41;4.70;;;2.20;;
79464;SDS011;68932;47.410;8.232;2024-03-29T07:01:09;4.00;;;2.10;;
79464;SDS011;68932;47.410;8.232;2024-03-29T07:03:37;3.10;;;2.10;;
79464;SDS011;68932;47.410;8.232;2024-03-29T07:06:06;3.30;;;2.30;;
79464;SDS011;68932;47.410;8.232;2024-03-29T07:08:34;3.10;;;2.20;;
79464;SDS011;68932;47.410;8.232;2024-03-29T07:11:02;3.40;;;3.10;;
79464;SDS011;68932;47.410;8.232;2024-03-29T07:13:31;3.90;;;2.80;;
79464;SDS011;68932;47.410;8.232;2024-03-29T07:15:59;2.90;;;2.50;;
79464;SDS011;68932;47.410;8.232;2024-03-29T07:18:28;2.60;;;2.00;;
79464;SDS011;68932;47.410;8.232;2024-03-29T07:20:56;3.30;;;2.70;;
79464;SDS011;68932;47.410;8.232;2024-03-29T07:23:24;3.10;;;2.50;;
79464;SDS011;68932;47.410;8.232;2024-03-29T07:25:59;4.00;;;3.60;;
79464;SDS011;68932;47.410;8.232;2024-03-29T07:28:28;3.40;;;2.00;;
79464;SDS011;68932;47.410;8.232;2024-03-29T07:30:56;3.10;;;2.60;;
79464;SDS011;68932;47.410;8.232;2024-03-29T07:33:31;3.10;;;2.40;;
79464;SDS011;68932;47.410;8.232;2024-03-29T07:35:59;3.00;;;2.50;;
79464;SDS011;68932;47.410;8.232;2024-03-29T07:38:28;4.90;;;4.50;;
79464;SDS011;68932;47.410;8.232;2024-03-29T07:40:56;3.80;;;3.50;;
79464;SDS011;68932;47.410;8.232;2024-03-29T07:43:25;2.60;;;2.30;;
79464;SDS011;68932;47.410;8.232;2024-03-29T07:48:30;3.00;;;2.70;;
79464;SDS011;68932;47.410;8.232;2024-03-29T07:50:58;3.30;;;2.10;;
79464;SDS011;68932;47.410;8.232;2024-03-29T07:53:26;3.10;;;2.40;;
79464;SDS011;68932;47.410;8.232;2024-03-29T07:55:54;3.60;;;2.90;;
79464;SDS011;68932;47.410;8.232;2024-03-29T07:58:22;3.20;;;2.20;;
79464;SDS011;68932;47.410;8.232;2024-03-29T08:00:51;3.60;;;2.20;;
79464;SDS011;68932;47.410;8.232;2024-03-29T08:03:20;2.80;;;2.00;;
79464;SDS011;68932;47.410;8.232;2024-03-29T08:05:56;3.70;;;2.00;;
79464;SDS011;68932;47.410;8.232;2024-03-29T08:08:25;2.90;;;1.60;;
79464;SDS011;68932;47.410;8.232;2024-03-29T08:10:54;2.60;;;2.40;;
79464;SDS011;68932;47.410;8.232;2024-03-29T08:13:23;3.40;;;1.90;;
79464;SDS011;68932;47.410;8.232;2024-03-29T08:15:57;2.40;;;1.60;;
79464;SDS011;68932;47.410;8.232;2024-03-29T08:18:26;2.20;;;1.40;;
79464;SDS011;68932;47.410;8.232;2024-03-29T08:20:55;2.60;;;2.10;;
79464;SDS011;68932;47.410;8.232;2024-03-29T08:23:23;1.90;;;1.60;;
79464;SDS011;68932;47.410;8.232;2024-03-29T08:25:51;1.70;;;1.30;;
79464;SDS011;68932;47.410;8.232;2024-03-29T08:28:19;2.20;;;1.40;;
79464;SDS011;68932;47.410;8.232;2024-03-29T08:30:49;3.00;;;1.90;;
79464;SDS011;68932;47.410;8.232;2024-03-29T08:33:25;2.90;;;2.00;;
79464;SDS011;68932;47.410;8.232;2024-03-29T08:35:53;2.30;;;1.50;;
79464;SDS011;68932;47.410;8.232;2024-03-29T08:38:21;2.70;;;1.60;;
79464;SDS011;68932;47.410;8.232;2024-03-29T08:40:49;2.30;;;1.60;;
79464;SDS011;68932;47.410;8.232;2024-03-29T08:43:17;2.60;;;1.70;;
79464;SDS011;68932;47.410;8.232;2024-03-29T08:45:45;2.90;;;2.10;;
79464;SDS011;68932;47.410;8.232;2024-03-29T08:48:13;4.30;;;1.40;;
79464;SDS011;68932;47.410;8.232;2024-03-29T08:50:42;2.00;;;1.40;;
79464;SDS011;68932;47.410;8.232;2024-03-29T08:53:10;1.80;;;1.20;;
79464;SDS011;68932;47.410;8.232;2024-03-29T08:55:38;1.50;;;1.10;;
79464;SDS011;68932;47.410;8.232;2024-03-29T08:58:06;2.90;;;2.10;;
79464;SDS011;68932;47.410;8.232;2024-03-29T09:00:34;1.90;;;1.40;;
79464;SDS011;68932;47.410;8.232;2024-03-29T09:03:02;3.20;;;2.00;;
79464;SDS011;68932;47.410;8.232;2024-03-29T09:05:31;2.20;;;1.40;;
79464;SDS011;68932;47.410;8.232;2024-03-29T09:07:59;3.30;;;1.50;;
79464;SDS011;68932;47.410;8.232;2024-03-29T09:10:27;1.70;;;1.20;;
79464;SDS011;68932;47.410;8.232;2024-03-29T09:12:55;2.10;;;1.30;;
79464;SDS011;68932;47.410;8.232;2024-03-29T09:15:23;2.00;;;1.80;;
79464;SDS011;68932;47.410;8.232;2024-03-29T09:17:51;3.70;;;1.60;;
79464;SDS011;68932;47.410;8.232;2024-03-29T09:20:19;2.20;;;1.00;;
79464;SDS011;68932;47.410;8.232;2024-03-29T09:22:49;1.20;;;0.80;;
79464;SDS011;68932;47.410;8.232;2024-03-29T09:25:18;5.00;;;1.60;;
79464;SDS011;68932;47.410;8.232;2024-03-29T09:27:46;1.30;;;0.80;;
79464;SDS011;68932;47.410;8.232;2024-03-29T09:30:15;1.90;;;1.10;;
79464;SDS011;68932;47.410;8.232;2024-03-29T09:32:43;1.90;;;1.00;;
79464;SDS011;68932;47.410;8.232;2024-03-29T09:35:11;1.60;;;1.00;;
79464;SDS011;68932;47.410;8.232;2024-03-29T09:37:39;3.20;;;1.40;;
79464;SDS011;68932;47.410;8.232;2024-03-29T09:40:09;2.40;;;1.20;;
79464;SDS011;68932;47.410;8.232;2024-03-29T09:42:38;4.50;;;1.60;;
79464;SDS011;68932;47.410;8.232;2024-03-29T09:45:08;2.00;;;0.90;;
79464;SDS011;68932;47.410;8.232;2024-03-29T09:47:37;1.80;;;0.90;;
79464;SDS011;68932;47.410;8.232;2024-03-29T09:50:08;2.10;;;1.10;;
79464;SDS011;68932;47.410;8.232;2024-03-29T09:52:36;1.90;;;1.10;;
79464;SDS011;68932;47.410;8.232;2024-03-29T09:55:06;1.40;;;0.90;;
79464;SDS011;68932;47.410;8.232;2024-03-29T09:57:35;2.10;;;1.00;;
79464;SDS011;68932;47.410;8.232;2024-03-29T10:00:04;1.50;;;1.00;;
79464;SDS011;68932;47.410;8.232;2024-03-29T10:02:34;1.20;;;0.60;;
79464;SDS011;68932;47.410;8.232;2024-03-29T10:05:04;1.80;;;1.00;;
79464;SDS011;68932;47.410;8.232;2024-03-29T10:07:36;2.00;;;0.90;;
79464;SDS011;68932;47.410;8.232;2024-03-29T10:10:05;2.00;;;1.40;;
79464;SDS011;68932;47.410;8.232;2024-03-29T10:12:34;2.20;;;1.10;;
79464;SDS011;68932;47.410;8.232;2024-03-29T10:15:02;2.10;;;1.50;;
79464;SDS011;68932;47.410;8.232;2024-03-29T10:17:31;2.90;;;1.30;;
79464;SDS011;68932;47.410;8.232;2024-03-29T10:20:00;1.70;;;1.20;;
79464;SDS011;68932;47.410;8.232;2024-03-29T10:22:28;2.00;;;1.20;;
79464;SDS011;68932;47.410;8.232;2024-03-29T10:24:57;2.50;;;1.20;;
79464;SDS011;68932;47.410;8.232;2024-03-29T10:27:26;2.20;;;1.50;;
79464;SDS011;68932;47.410;8.232;2024-03-29T10:29:54;2.10;;;1.80;;
79464;SDS011;68932;47.410;8.232;2024-03-29T10:32:23;2.10;;;1.50;;
79464;SDS011;68932;47.410;8.232;2024-03-29T10:34:51;3.60;;;1.50;;
79464;SDS011;68932;47.410;8.232;2024-03-29T10:37:19;3.50;;;1.50;;
79464;SDS011;68932;47.410;8.232;2024-03-29T10:39:47;2.20;;;1.20;;
79464;SDS011;68932;47.410;8.232;2024-03-29T10:42:16;3.70;;;1.60;;
79464;SDS011;68932;47.410;8.232;2024-03-29T10:44:46;3.00;;;1.70;;
79464;SDS011;68932;47.410;8.232;2024-03-29T10:47:17;2.50;;;1.20;;
79464;SDS011;68932;47.410;8.232;2024-03-29T10:49:46;1.90;;;1.00;;
79464;SDS011;68932;47.410;8.232;2024-03-29T10:52:17;2.10;;;1.10;;
79464;SDS011;68932;47.410;8.232;2024-03-29T10:54:47;2.00;;;1.30;;
79464;SDS011;68932;47.410;8.232;2024-03-29T10:57:19;2.00;;;1.20;;
79464;SDS011;68932;47.410;8.232;2024-03-29T10:59:50;2.60;;;1.10;;
79464;SDS011;68932;47.410;8.232;2024-03-29T11:04:58;1.80;;;1.00;;
79464;SDS011;68932;47.410;8.232;2024-03-29T11:07:28;1.70;;;1.00;;
79464;SDS011;68932;47.410;8.232;2024-03-29T11:09:57;3.00;;;2.00;;
79464;SDS011;68932;47.410;8.232;2024-03-29T11:12:28;1.70;;;1.30;;
79464;SDS011;68932;47.410;8.232;2024-03-29T11:15:15;1.80;;;1.10;;
79464;SDS011;68932;47.410;8.232;2024-03-29T11:17:48;1.40;;;1.20;;
79464;SDS011;68932;47.410;8.232;2024-03-29T11:20:17;2.30;;;1.70;;
79464;SDS011;68932;47.410;8.232;2024-03-29T11:22:46;1.90;;;1.40;;
79464;SDS011;68932;47.410;8.232;2024-03-29T11:25:14;2.40;;;1.60;;
79464;SDS011;68932;47.410;8.232;2024-03-29T11:27:42;2.40;;;1.70;;
79464;SDS011;68932;47.410;8.232;2024-03-29T11:30:11;2.50;;;1.30;;
79464;SDS011;68932;47.410;8.232;2024-03-29T11:32:42;3.00;;;1.40;;
79464;SDS011;68932;47.410;8.232;2024-03-29T11:35:15;2.80;;;1.30;;
79464;SDS011;68932;47.410;8.232;2024-03-29T11:37:43;4.10;;;2.00;;
79464;SDS011;68932;47.410;8.232;2024-03-29T11:40:12;2.20;;;1.80;;
79464;SDS011;68932;47.410;8.232;2024-03-29T11:42:46;2.40;;;1.20;;
79464;SDS011;68932;47.410;8.232;2024-03-29T11:45:19;2.30;;;1.40;;
79464;SDS011;68932;47.410;8.232;2024-03-29T11:47:48;2.00;;;1.30;;
79464;SDS011;68932;47.410;8.232;2024-03-29T11:50:17;2.90;;;1.40;;
79464;SDS011;68932;47.410;8.232;2024-03-29T11:52:46;1.70;;;1.10;;
79464;SDS011;68932;47.410;8.232;2024-03-29T11:55:14;2.20;;;1.60;;
79464;SDS011;68932;47.410;8.232;2024-03-29T11:57:42;3.40;;;1.00;;
79464;SDS011;68932;47.410;8.232;2024-03-29T12:00:11;1.40;;;1.00;;
79464;SDS011;68932;47.410;8.232;2024-03-29T12:02:40;1.50;;;0.90;;
79464;SDS011;68932;47.410;8.232;2024-03-29T12:05:09;2.30;;;1.20;;
79464;SDS011;68932;47.410;8.232;2024-03-29T12:07:38;2.90;;;1.50;;
79464;SDS011;68932;47.410;8.232;2024-03-29T12:10:07;2.30;;;1.30;;
79464;SDS011;68932;47.410;8.232;2024-03-29T12:12:37;4.00;;;1.90;;
79464;SDS011;68932;47.410;8.232;2024-03-29T12:15:06;2.40;;;1.10;;
79464;SDS011;68932;47.410;8.232;2024-03-29T12:17:35;3.00;;;1.20;;
79464;SDS011;68932;47.410;8.232;2024-03-29T12:20:04;3.20;;;1.20;;
79464;SDS011;68932;47.410;8.232;2024-03-29T12:22:34;1.20;;;0.90;;
79464;SDS011;68932;47.410;8.232;2024-03-29T12:25:02;1.90;;;1.30;;
79464;SDS011;68932;47.410;8.232;2024-03-29T12:27:31;1.60;;;1.00;;
79464;SDS011;68932;47.410;8.232;2024-03-29T12:29:59;1.10;;;0.80;;
79464;SDS011;68932;47.410;8.232;2024-03-29T12:32:27;2.10;;;1.20;;
79464;SDS011;68932;47.410;8.232;2024-03-29T12:34:55;2.60;;;1.20;;
79464;SDS011;68932;47.410;8.232;2024-03-29T12:37:35;1.70;;;1.10;;
79464;SDS011;68932;47.410;8.232;2024-03-29T12:40:06;2.20;;;1.00;;
79464;SDS011;68932;47.410;8.232;2024-03-29T12:42:35;1.60;;;0.90;;
79464;SDS011;68932;47.410;8.232;2024-03-29T12:45:04;2.00;;;1.10;;
79464;SDS011;68932;47.410;8.232;2024-03-29T12:47:33;1.30;;;0.90;;
79464;SDS011;68932;47.410;8.232;2024-03-29T12:50:02;1.60;;;0.90;;
79464;SDS011;68932;47.410;8.232;2024-03-29T12:52:37;1.10;;;0.80;;
79464;SDS011;68932;47.410;8.232;2024-03-29T12:55:06;2.10;;;0.80;;
79464;SDS011;68932;47.410;8.232;2024-03-29T12:57:35;0.70;;;0.50;;
79464;SDS011;68932;47.410;8.232;2024-03-29T13:00:05;1.60;;;1.30;;
79464;SDS011;68932;47.410;8.232;2024-03-29T13:02:34;1.70;;;1.00;;
79464;SDS011;68932;47.410;8.232;2024-03-29T13:05:03;1.30;;;0.60;;
79464;SDS011;68932;47.410;8.232;2024-03-29T13:07:31;1.10;;;0.90;;
79464;SDS011;68932;47.410;8.232;2024-03-29T13:10:00;0.70;;;0.40;;
79464;SDS011;68932;47.410;8.232;2024-03-29T13:12:28;1.10;;;0.70;;
79464;SDS011;68932;47.410;8.232;2024-03-29T13:14:56;3.70;;;0.80;;
79464;SDS011;68932;47.410;8.232;2024-03-29T13:17:28;1.30;;;0.70;;
79464;SDS011;68932;47.410;8.232;2024-03-29T13:19:56;2.80;;;1.30;;
79464;SDS011;68932;47.410;8.232;2024-03-29T13:22:24;2.10;;;0.70;;
79464;SDS011;68932;47.410;8.232;2024-03-29T13:24:52;1.20;;;0.90;;
79464;SDS011;68932;47.410;8.232;2024-03-29T13:27:20;1.30;;;0.60;;
79464;SDS011;68932;47.410;8.232;2024-03-29T13:29:48;0.90;;;0.60;;
79464;SDS011;68932;47.410;8.232;2024-03-29T13:32:16;1.30;;;0.80;;
79464;SDS011;68932;47.410;8.232;2024-03-29T13:34:44;0.90;;;0.50;;
79464;SDS011;68932;47.410;8.232;2024-03-29T13:37:12;1.00;;;0.50;;
79464;SDS011;68932;47.410;8.232;2024-03-29T13:39:41;1.00;;;0.70;;
79464;SDS011;68932;47.410;8.232;2024-03-29T13:42:09;1.40;;;0.70;;
79464;SDS011;68932;47.410;8.232;2024-03-29T13:44:37;3.30;;;0.70;;
79464;SDS011;68932;47.410;8.232;2024-03-29T13:47:05;1.50;;;0.70;;
79464;SDS011;68932;47.410;8.232;2024-03-29T13:49:33;1.60;;;0.60;;
79464;SDS011;68932;47.410;8.232;2024-03-29T13:52:01;1.20;;;0.60;;
79464;SDS011;68932;47.410;8.232;2024-03-29T13:54:30;1.10;;;0.80;;
79464;SDS011;68932;47.410;8.232;2024-03-29T13:56:58;1.20;;;0.70;;
79464;SDS011;68932;47.410;8.232;2024-03-29T13:59:26;0.90;;;0.50;;
79464;SDS011;68932;47.410;8.232;2024-03-29T14:01:54;1.60;;;1.00;;
79464;SDS011;68932;47.410;8.232;2024-03-29T14:04:22;1.60;;;0.60;;
79464;SDS011;68932;47.410;8.232;2024-03-29T14:06:50;1.10;;;0.70;;
79464;SDS011;68932;47.410;8.232;2024-03-29T14:09:18;1.10;;;0.60;;
79464;SDS011;68932;47.410;8.232;2024-03-29T14:11:46;1.20;;;0.80;;
79464;SDS011;68932;47.410;8.232;2024-03-29T14:14:14;1.60;;;0.90;;
79464;SDS011;68932;47.410;8.232;2024-03-29T14:16:42;2.20;;;0.70;;
79464;SDS011;68932;47.410;8.232;2024-03-29T14:19:11;1.10;;;0.60;;
79464;SDS011;68932;47.410;8.232;2024-03-29T14:21:40;1.20;;;0.80;;
79464;SDS011;68932;47.410;8.232;2024-03-29T14:24:08;1.30;;;0.50;;
79464;SDS011;68932;47.410;8.232;2024-03-29T14:26:36;2.30;;;0.90;;
79464;SDS011;68932;47.410;8.232;2024-03-29T14:29:05;1.10;;;0.90;;
79464;SDS011;68932;47.410;8.232;2024-03-29T14:31:33;1.20;;;0.70;;
79464;SDS011;68932;47.410;8.232;2024-03-29T14:34:01;1.20;;;1.00;;
79464;SDS011;68932;47.410;8.232;2024-03-29T14:36:29;1.10;;;0.60;;
79464;SDS011;68932;47.410;8.232;2024-03-29T14:38:57;2.70;;;0.70;;
79464;SDS011;68932;47.410;8.232;2024-03-29T14:41:25;0.70;;;0.50;;
79464;SDS011;68932;47.410;8.232;2024-03-29T14:43:54;2.20;;;0.90;;
79464;SDS011;68932;47.410;8.232;2024-03-29T14:46:22;1.60;;;1.50;;
79464;SDS011;68932;47.410;8.232;2024-03-29T14:48:50;1.30;;;0.80;;
79464;SDS011;68932;47.410;8.232;2024-03-29T14:51:18;1.10;;;1.00;;
79464;SDS011;68932;47.410;8.232;2024-03-29T14:53:46;1.70;;;0.90;;
79464;SDS011;68932;47.410;8.232;2024-03-29T14:56:14;1.60;;;1.00;;
79464;SDS011;68932;47.410;8.232;2024-03-29T14:58:42;1.40;;;0.80;;
79464;SDS011;68932;47.410;8.232;2024-03-29T15:01:10;1.40;;;0.70;;